createdAt,value
2023-04-08T00:00:22.529Z,94699.34
2023-04-08T00:02:24.433Z,94700.59
2023-04-08T00:04:26.492Z,94701.41
2023-04-08T00:06:28.043Z,94693.47
2023-04-08T00:08:29.570Z,94696.06
2023-04-08T00:10:31.172Z,94698.38
2023-04-08T00:12:33.055Z,94709.66
2023-04-08T00:14:34.977Z,94704.69
2023-04-08T00:16:36.494Z,94703.06
2023-04-08T00:18:38.560Z,94695.78
2023-04-08T00:20:40.056Z,94695.38
2023-04-08T00:22:41.599Z,94690.97
2023-04-08T00:24:43.162Z,94693.16
2023-04-08T00:26:44.626Z,94690.69
2023-04-08T00:28:46.916Z,94695.22
2023-04-08T00:30:48.465Z,94691.94
2023-04-08T00:32:50.118Z,94694.41
2023-04-08T00:34:51.689Z,94687.13
2023-04-08T00:36:53.180Z,94688.81
2023-04-08T00:38:54.646Z,94696.47
2023-04-08T00:40:56.119Z,94695.78
2023-04-08T00:42:58.511Z,94696.19
2023-04-08T00:45:00.018Z,94701.28
2023-04-08T00:47:01.492Z,94694.00
2023-04-08T00:49:03.140Z,94699.34
2023-04-08T00:51:04.762Z,94694.13
2023-04-08T00:53:06.248Z,94699.34
2023-04-08T00:55:07.920Z,94697.44
2023-04-08T00:57:09.413Z,94695.50
2023-04-08T00:59:10.970Z,94705.25
2023-04-08T01:01:17.458Z,94707.06
2023-04-08T01:03:21.194Z,94704.31
2023-04-08T01:05:25.984Z,94708.81
2023-04-08T01:07:28.399Z,94703.88
2023-04-08T01:09:30.520Z,94704.44
2023-04-08T01:11:33.101Z,94704.31
2023-04-08T01:13:36.069Z,94704.72
2023-04-08T01:15:39.167Z,94713.06
2023-04-08T01:17:41.191Z,94708.41
2023-04-08T01:19:44.999Z,94705.53
2023-04-08T01:21:46.542Z,94707.44
2023-04-08T01:24:02.286Z,94708.28
2023-04-08T01:26:03.834Z,94711.28
2023-04-08T01:28:12.300Z,94702.94
2023-04-08T01:30:13.825Z,94708.81
2023-04-08T01:32:15.468Z,94710.19
2023-04-08T01:34:17.120Z,94705.66
2023-04-08T01:36:18.747Z,94703.06
2023-04-08T01:38:20.716Z,94707.16
2023-04-08T01:40:22.124Z,94712.38
2023-04-08T01:42:24.234Z,94705.38
2023-04-08T01:44:26.304Z,94706.63
2023-04-08T01:46:27.858Z,94712.81
2023-04-08T01:48:29.476Z,94709.22
2023-04-08T01:50:31.012Z,94709.25
2023-04-08T01:52:32.876Z,94709.50
2023-04-08T01:54:38.168Z,94711.56
2023-04-08T01:56:40.491Z,94707.31
2023-04-08T01:58:42.488Z,94719.91
2023-04-08T02:00:44.066Z,94724.72
2023-04-08T02:02:47.260Z,94717.72
2023-04-08T02:04:49.003Z,94718.00
2023-04-08T02:06:50.869Z,94725.66
2023-04-08T02:08:52.640Z,94727.47
2023-04-08T02:10:54.283Z,94727.19
2023-04-08T02:12:55.799Z,94731.72
2023-04-08T02:14:57.948Z,94729.66
2023-04-08T02:17:06.311Z,94742.78
2023-04-08T02:19:12.331Z,94741.19
2023-04-08T02:21:14.746Z,94735.19
2023-04-08T02:23:18.775Z,94746.13
2023-04-08T02:25:22.347Z,94745.03
2023-04-08T02:27:24.028Z,94744.72
2023-04-08T02:29:25.715Z,94742.06
2023-04-08T02:31:27.250Z,94739.97
2023-04-08T02:33:28.788Z,94735.84
2023-04-08T02:35:30.582Z,94736.69
2023-04-08T02:37:32.428Z,94735.47
2023-04-08T02:39:33.898Z,94750.75
2023-04-08T02:41:35.468Z,94739.78
2023-04-08T02:43:36.969Z,94740.34
2023-04-08T02:45:39.262Z,94739.06
2023-04-08T02:47:40.871Z,94734.91
2023-04-08T02:49:42.387Z,94737.75
2023-04-08T02:51:43.864Z,94734.41
2023-04-08T02:53:45.385Z,94738.13
2023-04-08T02:55:46.922Z,94735.94
2023-04-08T02:57:49.037Z,94743.78
2023-04-08T02:59:50.551Z,94738.72
2023-04-08T03:01:52.153Z,94735.84
2023-04-08T03:03:53.853Z,94740.19
2023-04-08T03:05:56.014Z,94739.34
2023-04-08T03:07:58.391Z,94744.38
2023-04-08T03:09:59.907Z,94740.34
2023-04-08T03:12:02.770Z,94731.16
2023-04-08T03:14:04.483Z,94732.34
2023-04-08T03:16:06.316Z,94733.16
2023-04-08T03:18:07.854Z,94737.38
2023-04-08T03:20:09.496Z,94734.13
2023-04-08T03:22:11.251Z,94731.34
2023-04-08T03:24:12.762Z,94730.78
2023-04-08T03:26:14.257Z,94731.72
2023-04-08T03:28:15.963Z,94733.72
2023-04-08T03:30:17.724Z,94731.75
2023-04-08T03:32:19.325Z,94730.03
2023-04-08T03:34:20.918Z,94740.31
2023-04-08T03:36:22.432Z,94736.94
2023-04-08T03:38:23.929Z,94734.50
2023-04-08T03:40:25.560Z,94738.06
2023-04-08T03:42:27.355Z,94733.56
2023-04-08T03:44:28.845Z,94734.66
2023-04-08T03:46:30.514Z,94742.72
2023-04-08T03:48:32.516Z,94738.28
2023-04-08T03:50:34.002Z,94738.94
2023-04-08T03:52:35.577Z,94740.59
2023-04-08T03:54:37.092Z,94734.16
2023-04-08T03:56:38.531Z,94727.19
2023-04-08T03:58:40.105Z,94734.19
2023-04-08T04:00:41.634Z,94727.94
2023-04-08T04:02:43.245Z,94730.72
2023-04-08T04:04:44.863Z,94729.34
2023-04-08T04:06:46.312Z,94735.63
2023-04-08T04:08:48.246Z,94729.38
2023-04-08T04:10:49.948Z,94734.03
2023-04-08T04:12:51.560Z,94731.28
2023-04-08T04:14:53.079Z,94736.78
2023-04-08T04:16:54.586Z,94741.16
2023-04-08T04:18:56.230Z,94740.19
2023-04-08T04:20:57.784Z,94746.78
2023-04-08T04:22:59.280Z,94743.59
2023-04-08T04:25:00.856Z,94744.69
2023-04-08T04:27:02.399Z,94744.38
2023-04-08T04:29:03.897Z,94751.56
2023-04-08T04:31:05.544Z,94750.22
2023-04-08T04:33:07.449Z,94746.81
2023-04-08T04:35:12.036Z,94751.75
2023-04-08T04:37:13.858Z,94750.09
2023-04-08T04:39:15.756Z,94753.66
2023-04-08T04:41:17.426Z,94742.72
2023-04-08T04:43:18.985Z,94763.78
2023-04-08T04:45:20.485Z,94755.41
2023-04-08T04:47:22.060Z,94759.22
2023-04-08T04:49:23.570Z,94754.88
2023-04-08T04:51:25.079Z,94748.63
2023-04-08T04:53:26.673Z,94758.38
2023-04-08T04:55:28.230Z,94754.50
2023-04-08T04:57:29.723Z,94758.03
2023-04-08T04:59:31.185Z,94758.63
2023-04-08T05:01:32.763Z,94758.72
2023-04-08T05:03:34.401Z,94762.28
2023-04-08T05:05:36.036Z,94761.78
2023-04-08T05:07:37.838Z,94754.44
2023-04-08T05:09:39.322Z,94756.53
2023-04-08T05:11:40.885Z,94758.09
2023-04-08T05:13:42.422Z,94762.22
2023-04-08T05:15:45.806Z,94759.91
2023-04-08T05:17:47.591Z,94765.78
2023-04-08T05:19:49.174Z,94757.78
2023-04-08T05:21:50.969Z,94767.63
2023-04-08T05:23:53.911Z,94757.94
2023-04-08T05:25:55.470Z,94756.09
2023-04-08T05:27:57.518Z,94755.47
2023-04-08T05:29:59.111Z,94762.69
2023-04-08T05:32:00.642Z,94754.81
2023-04-08T05:34:02.177Z,94761.72
2023-04-08T05:36:03.723Z,94765.53
2023-04-08T05:38:05.216Z,94761.16
2023-04-08T05:40:06.996Z,94760.16
2023-04-08T05:42:08.492Z,94757.19
2023-04-08T05:44:10.034Z,94762.19
2023-04-08T05:46:11.723Z,94760.72
2023-04-08T05:48:13.263Z,94764.44
2023-04-08T05:50:14.888Z,94759.25
2023-04-08T05:52:16.777Z,94766.81
2023-04-08T05:54:18.578Z,94763.41
2023-04-08T05:56:20.046Z,94756.94
2023-04-08T05:58:21.575Z,94761.09
2023-04-08T06:00:23.112Z,94755.47
2023-04-08T06:02:24.763Z,94753.38
2023-04-08T06:04:26.562Z,94749.53
2023-04-08T06:06:28.168Z,94755.34
2023-04-08T06:08:29.936Z,94753.56
2023-04-08T06:10:31.450Z,94753.03
2023-04-08T06:12:35.280Z,94754.34
2023-04-08T06:14:36.899Z,94748.72
2023-04-08T06:16:38.500Z,94752.38
2023-04-08T06:18:39.957Z,94754.66
2023-04-08T06:20:41.485Z,94753.84
2023-04-08T06:22:43.005Z,94759.41
2023-04-08T06:24:44.566Z,94751.19
2023-04-08T06:26:46.102Z,94760.84
2023-04-08T06:28:47.612Z,94757.59
2023-04-08T06:30:49.125Z,94751.59
2023-04-08T06:32:50.750Z,94752.97
2023-04-08T06:34:52.320Z,94757.34
2023-04-08T06:36:53.819Z,94757.75
2023-04-08T06:38:55.323Z,94757.63
2023-04-08T06:40:56.781Z,94758.97
2023-04-08T06:42:58.324Z,94758.63
2023-04-08T06:44:59.943Z,94756.97
2023-04-08T06:47:01.431Z,94760.97
2023-04-08T06:49:04.644Z,94754.19
2023-04-08T06:51:07.896Z,94758.47
2023-04-08T06:53:09.375Z,94755.31
2023-04-08T06:55:11.183Z,94762.44
2023-04-08T06:57:12.757Z,94760.19
2023-04-08T06:59:14.344Z,94755.22
2023-04-08T07:01:16.727Z,94755.75
2023-04-08T07:03:18.375Z,94762.81
2023-04-08T07:05:19.980Z,94761.81
2023-04-08T07:07:21.469Z,94758.78
2023-04-08T07:09:23.015Z,94752.34
2023-04-08T07:11:24.605Z,94761.81
2023-04-08T07:13:26.107Z,94761.53
2023-04-08T07:15:27.543Z,94767.22
2023-04-08T07:17:29.146Z,94762.78
2023-04-08T07:19:31.033Z,94767.00
2023-04-08T07:21:32.579Z,94765.59
2023-04-08T07:23:34.120Z,94763.22
2023-04-08T07:25:35.654Z,94769.78
2023-04-08T07:27:37.243Z,94774.84
2023-04-08T07:29:38.675Z,94772.47
2023-04-08T07:31:40.142Z,94771.19
2023-04-08T07:33:41.794Z,94780.38
2023-04-08T07:35:43.384Z,94780.75
2023-04-08T07:37:44.908Z,94780.75
2023-04-08T07:39:46.471Z,94774.56
2023-04-08T07:41:47.972Z,94782.88
2023-04-08T07:43:49.494Z,94784.22
2023-04-08T07:45:51.451Z,94785.38
2023-04-08T07:47:53.082Z,94784.00
2023-04-08T07:49:54.696Z,94794.53
2023-04-08T07:51:56.266Z,94790.47
2023-04-08T07:53:58.203Z,94794.94
2023-04-08T07:55:59.721Z,94797.88
2023-04-08T07:58:01.563Z,94794.47
2023-04-08T08:00:04.844Z,94806.72
2023-04-08T08:02:06.696Z,94808.44
2023-04-08T08:04:08.523Z,94802.06
2023-04-08T08:06:11.689Z,94807.59
2023-04-08T08:08:13.184Z,94805.22
2023-04-08T08:10:14.834Z,94807.38
2023-04-08T08:12:16.387Z,94804.34
2023-04-08T08:14:17.882Z,94801.94
2023-04-08T08:16:19.609Z,94801.75
2023-04-08T08:18:21.169Z,94802.16
2023-04-08T08:20:22.791Z,94802.34
2023-04-08T08:22:24.301Z,94803.69
2023-04-08T08:24:26.117Z,94806.38
2023-04-08T08:26:28.769Z,94804.44
2023-04-08T08:28:30.282Z,94809.19
2023-04-08T08:32:33.514Z,94806.47
2023-04-08T08:34:34.983Z,94807.69
2023-04-08T08:36:36.524Z,94810.28
2023-04-08T08:38:38.062Z,94803.03
2023-04-08T08:40:39.725Z,94805.81
2023-04-08T08:42:41.236Z,94804.91
2023-04-08T08:44:42.694Z,94800.28
2023-04-08T08:46:44.566Z,94801.56
2023-04-08T08:48:46.365Z,94803.88
2023-04-08T08:50:47.915Z,94798.31
2023-04-08T08:52:50.335Z,94791.25
2023-04-08T08:54:58.278Z,94795.22
2023-04-08T08:56:59.739Z,94792.03
2023-04-08T08:59:01.245Z,94797.28
2023-04-08T09:01:02.803Z,94804.34
2023-04-08T09:03:16.729Z,94795.81
2023-04-08T09:05:18.625Z,94801.63
2023-04-08T09:07:20.305Z,94799.00
2023-04-08T09:09:21.791Z,94803.53
2023-04-08T09:11:23.284Z,94803.88
2023-04-08T09:13:25.653Z,94805.97
2023-04-08T09:15:27.481Z,94802.59
2023-04-08T09:17:33.748Z,94801.38
2023-04-08T09:19:35.253Z,94799.91
2023-04-08T09:21:36.961Z,94806.16
2023-04-08T09:23:41.565Z,94799.22
2023-04-08T09:25:43.112Z,94797.38
2023-04-08T09:27:44.563Z,94799.56
2023-04-08T09:29:46.135Z,94793.06
2023-04-08T09:31:47.673Z,94794.59
2023-04-08T09:33:54.184Z,94792.50
2023-04-08T09:35:55.995Z,94787.38
2023-04-08T09:37:57.479Z,94790.56
2023-04-08T09:40:17.538Z,94775.91
2023-04-08T09:42:18.975Z,94777.78
2023-04-08T09:44:22.277Z,94776.31
2023-04-08T09:46:28.236Z,94774.59
2023-04-08T09:48:30.696Z,94771.78
2023-04-08T09:50:32.510Z,94778.22
2023-04-08T09:52:34.459Z,94779.91
2023-04-08T09:54:36.162Z,94775.75
2023-04-08T09:56:41.070Z,94770.66
2023-04-08T09:58:47.363Z,94764.97
2023-04-08T10:00:51.044Z,94768.66
2023-04-08T10:03:08.498Z,94765.03
2023-04-08T10:05:10.984Z,94773.69
2023-04-08T10:07:13.173Z,94765.72
2023-04-08T10:09:14.806Z,94764.97
2023-04-08T10:11:16.288Z,94765.28
2023-04-08T10:13:17.768Z,94768.75
2023-04-08T10:15:25.452Z,94770.97
2023-04-08T10:17:36.110Z,94768.78
2023-04-08T10:19:41.825Z,94761.53
2023-04-08T10:21:48.130Z,94765.59
2023-04-08T10:23:59.097Z,94760.31
2023-04-08T10:26:01.195Z,94754.47
2023-04-08T10:28:23.624Z,94761.03
2023-04-08T10:30:28.125Z,94764.41
2023-04-08T10:32:30.313Z,94760.41
2023-04-08T10:34:31.852Z,94754.66
2023-04-08T10:36:33.366Z,94758.09
2023-04-08T10:38:34.936Z,94750.56
2023-04-08T10:40:39.529Z,94746.81
2023-04-08T10:42:41.068Z,94753.06
2023-04-08T10:44:44.570Z,94743.53
2023-04-08T10:46:46.834Z,94734.00
2023-04-08T10:48:59.694Z,94731.34
2023-04-08T10:51:02.103Z,94729.63
2023-04-08T10:53:03.730Z,94723.09
2023-04-08T10:55:05.634Z,94725.63
2023-04-08T10:57:07.529Z,94737.31
2023-04-08T10:59:09.001Z,94727.13
2023-04-08T11:01:10.597Z,94721.22
2023-04-08T11:03:14.340Z,94716.31
2023-04-08T11:05:17.317Z,94715.31
2023-04-08T11:07:20.333Z,94714.34
2023-04-08T11:09:21.816Z,94701.72
2023-04-08T11:11:23.983Z,94709.88
2023-04-08T11:13:25.488Z,94701.13
2023-04-08T11:15:27.105Z,94715.56
2023-04-08T11:17:29.093Z,94703.13
2023-04-08T11:19:30.718Z,94700.56
2023-04-08T11:21:32.800Z,94702.53
2023-04-08T11:23:34.266Z,94692.03
2023-04-08T11:25:35.818Z,94693.00
2023-04-08T11:27:37.682Z,94692.66
2023-04-08T11:29:39.736Z,94685.59
2023-04-08T11:31:41.716Z,94681.00
2023-04-08T11:33:47.709Z,94677.88
2023-04-08T11:35:51.264Z,94678.53
2023-04-08T11:37:52.948Z,94683.75
2023-04-08T11:39:57.763Z,94675.66
2023-04-08T11:41:59.621Z,94667.25
2023-04-08T11:44:01.365Z,94674.13
2023-04-08T11:46:12.574Z,94670.97
2023-04-08T11:48:15.711Z,94669.38
2023-04-08T11:50:26.251Z,94661.56
2023-04-08T11:52:46.418Z,94664.59
2023-04-08T11:54:47.994Z,94666.72
2023-04-08T11:56:49.677Z,94657.28
2023-04-08T11:58:51.816Z,94662.88
2023-04-08T12:00:53.751Z,94659.16
2023-04-08T12:02:55.417Z,94663.72
2023-04-08T12:04:57.053Z,94651.72
2023-04-08T12:06:58.658Z,94652.91
2023-04-08T12:09:00.560Z,94653.38
2023-04-08T12:11:16.563Z,94643.41
2023-04-08T12:13:21.052Z,94648.28
2023-04-08T12:15:22.742Z,94645.13
2023-04-08T12:17:24.305Z,94647.19
2023-04-08T12:19:25.864Z,94650.81
2023-04-08T12:21:28.036Z,94636.91
2023-04-08T12:23:29.556Z,94641.44
2023-04-08T12:25:31.766Z,94637.66
2023-04-08T12:27:33.578Z,94638.94
2023-04-08T12:29:35.156Z,94635.69
2023-04-08T12:31:36.797Z,94632.81
2023-04-08T12:33:38.298Z,94630.97
2023-04-08T12:35:39.891Z,94631.09
2023-04-08T12:37:41.720Z,94628.25
2023-04-08T12:39:43.238Z,94620.47
2023-04-08T12:41:44.746Z,94620.47
2023-04-08T12:43:46.307Z,94624.53
2023-04-08T12:45:48.894Z,94622.13
2023-04-08T12:47:50.461Z,94629.34
2023-04-08T12:49:52.123Z,94632.59
2023-04-08T12:51:53.820Z,94640.94
2023-04-08T12:53:55.371Z,94633.88
2023-04-08T12:55:57.598Z,94645.72
2023-04-08T12:57:59.137Z,94650.81
2023-04-08T13:00:00.621Z,94659.38
2023-04-08T13:02:02.207Z,94660.38
2023-04-08T13:04:03.809Z,94657.75
2023-04-08T13:06:05.384Z,94659.53
2023-04-08T13:08:06.848Z,94660.19
2023-04-08T13:10:08.728Z,94662.59
2023-04-08T13:12:12.185Z,94660.03
2023-04-08T13:14:13.792Z,94655.72
2023-04-08T13:16:15.586Z,94644.03
2023-04-08T13:18:17.098Z,94643.59
2023-04-08T13:20:18.700Z,94637.13
2023-04-08T13:22:20.377Z,94631.69
2023-04-08T13:24:21.942Z,94636.25
2023-04-08T13:26:24.240Z,94638.69
2023-04-08T13:28:25.843Z,94639.69
2023-04-08T13:30:27.352Z,94634.94
2023-04-08T13:32:28.844Z,94638.84
2023-04-08T13:34:30.556Z,94638.22
2023-04-08T13:36:32.353Z,94644.25
2023-04-08T13:38:33.832Z,94640.25
2023-04-08T13:40:35.624Z,94632.78
2023-04-08T13:42:37.534Z,94632.91
2023-04-08T13:44:39.353Z,94639.00
2023-04-08T13:46:40.980Z,94634.53
2023-04-08T13:48:42.496Z,94634.78
2023-04-08T13:50:44.188Z,94629.47
2023-04-08T13:52:45.732Z,94623.78
2023-04-08T13:54:47.271Z,94617.56
2023-04-08T13:56:49.104Z,94619.47
2023-04-08T13:58:56.769Z,94617.25
2023-04-08T14:00:59.112Z,94621.78
2023-04-08T14:03:00.629Z,94609.34
2023-04-08T14:05:02.556Z,94611.13
2023-04-08T14:07:04.066Z,94614.16
2023-04-08T14:09:05.822Z,94614.81
2023-04-08T14:11:07.277Z,94621.50
2023-04-08T14:13:08.837Z,94629.78
2023-04-08T14:15:29.195Z,94627.59
2023-04-08T14:17:31.034Z,94623.63
2023-04-08T14:19:32.602Z,94619.66
2023-04-08T14:21:34.118Z,94633.91
2023-04-08T14:23:35.902Z,94626.78
2023-04-08T14:25:37.385Z,94625.03
2023-04-08T14:27:50.972Z,94623.28
2023-04-08T14:29:58.763Z,94619.47
2023-04-08T14:32:00.277Z,94621.03
2023-04-08T14:34:02.919Z,94618.66
2023-04-08T14:36:04.384Z,94626.84
2023-04-08T14:38:05.948Z,94617.59
2023-04-08T14:40:07.794Z,94623.28
2023-04-08T14:42:09.296Z,94628.13
2023-04-08T14:44:10.890Z,94628.25
2023-04-08T14:46:12.367Z,94642.41
2023-04-08T14:48:13.855Z,94629.28
2023-04-08T14:50:16.183Z,94637.66
2023-04-08T14:52:17.672Z,94641.38
2023-04-08T14:54:19.208Z,94637.47
2023-04-08T14:56:21.074Z,94640.03
2023-04-08T14:58:23.135Z,94640.84
2023-04-08T15:00:24.677Z,94640.84
2023-04-08T15:02:26.358Z,94643.81
2023-04-08T15:04:28.047Z,94630.34
2023-04-08T15:06:30.723Z,94628.88
2023-04-08T15:08:32.411Z,94638.72
2023-04-08T15:10:33.861Z,94632.31
2023-04-08T15:12:36.492Z,94638.06
2023-04-08T15:14:37.983Z,94643.31
2023-04-08T15:16:39.580Z,94641.34
2023-04-08T15:18:41.202Z,94644.97
2023-04-08T15:20:42.713Z,94641.34
2023-04-08T15:22:44.632Z,94644.78
2023-04-08T15:24:47.934Z,94644.47
2023-04-08T15:26:49.650Z,94643.97
2023-04-08T15:28:52.743Z,94645.28
2023-04-08T15:30:54.499Z,94653.00
2023-04-08T15:32:57.521Z,94645.75
2023-04-08T15:34:59.560Z,94646.09
2023-04-08T15:37:02.215Z,94647.19
2023-04-08T15:39:03.767Z,94646.06
2023-04-08T15:41:05.501Z,94645.72
2023-04-08T15:43:10.158Z,94638.22
2023-04-08T15:45:11.979Z,94643.31
2023-04-08T15:47:13.563Z,94641.22
2023-04-08T15:49:15.083Z,94646.50
2023-04-08T15:51:16.982Z,94652.91
2023-04-08T15:53:18.446Z,94647.47
2023-04-08T15:55:19.968Z,94643.53
2023-04-08T15:57:26.552Z,94656.31
2023-04-08T15:59:31.298Z,94653.03
2023-04-08T16:01:33.408Z,94656.78
2023-04-08T16:03:35.185Z,94659.81
2023-04-08T16:05:39.274Z,94660.56
2023-04-08T16:07:42.154Z,94655.84
2023-04-08T16:09:43.809Z,94656.38
2023-04-08T16:11:45.325Z,94653.91
2023-04-08T16:13:47.231Z,94661.38
2023-04-08T16:15:48.834Z,94665.72
2023-04-08T16:17:51.658Z,94663.84
2023-04-08T16:19:53.217Z,94668.13
2023-04-08T16:21:54.713Z,94674.22
2023-04-08T16:23:56.455Z,94672.91
2023-04-08T16:25:57.899Z,94675.69
2023-04-08T16:27:59.440Z,94679.13
2023-04-08T16:30:01.461Z,94681.13
2023-04-08T16:32:03.806Z,94681.41
2023-04-08T16:34:05.312Z,94682.03
2023-04-08T16:36:07.126Z,94687.44
2023-04-08T16:38:08.723Z,94689.91
2023-04-08T16:40:10.422Z,94693.22
2023-04-08T16:42:12.265Z,94693.44
2023-04-08T16:44:14.767Z,94696.59
2023-04-08T16:46:16.810Z,94706.88
2023-04-08T16:48:18.420Z,94703.97
2023-04-08T16:50:19.935Z,94699.88
2023-04-08T16:52:21.737Z,94709.22
2023-04-08T16:54:23.205Z,94698.75
2023-04-08T16:56:24.904Z,94702.53
2023-04-08T16:58:26.459Z,94705.97
2023-04-08T17:00:28.389Z,94710.38
2023-04-08T17:02:29.989Z,94709.72
2023-04-08T17:04:31.539Z,94717.56
2023-04-08T17:06:35.785Z,94722.31
2023-04-08T17:08:37.514Z,94724.75
2023-04-08T17:10:39.529Z,94727.19
2023-04-08T17:12:41.704Z,94729.59
2023-04-08T17:14:43.198Z,94733.31
2023-04-08T17:16:44.714Z,94729.03
2023-04-08T17:18:46.526Z,94741.47
2023-04-08T17:20:48.106Z,94742.47
2023-04-08T17:22:50.010Z,94743.13
2023-04-08T17:24:54.165Z,94744.44
2023-04-08T17:26:57.715Z,94746.09
2023-04-08T17:28:59.323Z,94748.84
2023-04-08T17:31:01.628Z,94748.84
2023-04-08T17:33:03.768Z,94755.44
2023-04-08T17:35:05.312Z,94756.56
2023-04-08T17:37:07.028Z,94760.78
2023-04-08T17:39:08.537Z,94767.97
2023-04-08T17:41:13.412Z,94771.25
2023-04-08T17:43:16.580Z,94770.63
2023-04-08T17:45:18.215Z,94780.66
2023-04-08T17:47:21.143Z,94784.38
2023-04-08T17:49:22.992Z,94786.03
2023-04-08T17:51:24.549Z,94796.78
2023-04-08T17:53:26.157Z,94802.03
2023-04-08T17:55:27.764Z,94807.25
2023-04-08T17:57:29.394Z,94809.00
2023-04-08T17:59:31.141Z,94803.94
2023-04-08T18:01:32.720Z,94807.63
2023-04-08T18:03:34.382Z,94812.00
2023-04-08T18:05:36.430Z,94816.25
2023-04-08T18:07:37.979Z,94813.59
2023-04-08T18:09:40.918Z,94820.94
2023-04-08T18:11:42.423Z,94817.97
2023-04-08T18:13:44.038Z,94815.63
2023-04-08T18:15:46.304Z,94819.03
2023-04-08T18:17:47.846Z,94824.09
2023-04-08T18:19:49.372Z,94825.81
2023-04-08T18:21:51.002Z,94830.50
2023-04-08T18:23:52.813Z,94828.00
2023-04-08T18:25:54.587Z,94825.13
2023-04-08T18:27:56.109Z,94828.28
2023-04-08T18:29:57.554Z,94827.59
2023-04-08T18:31:59.040Z,94834.31
2023-04-08T18:34:00.561Z,94830.09
2023-04-08T18:36:12.664Z,94840.38
2023-04-08T18:38:14.369Z,94838.97
2023-04-08T18:40:15.872Z,94840.88
2023-04-08T18:42:17.475Z,94838.53
2023-04-08T18:44:19.268Z,94840.25
2023-04-08T18:46:20.964Z,94842.41
2023-04-08T18:48:22.447Z,94840.13
2023-04-08T18:50:23.936Z,94844.84
2023-04-08T18:52:25.463Z,94846.19
2023-04-08T18:54:27.507Z,94836.25
2023-04-08T18:56:29.086Z,94841.53
2023-04-08T18:58:31.539Z,94839.81
2023-04-08T19:00:33.110Z,94847.47
2023-04-08T19:02:35.035Z,94848.53
2023-04-08T19:04:38.650Z,94851.19
2023-04-08T19:06:40.283Z,94850.41
2023-04-08T19:08:41.928Z,94849.41
2023-04-08T19:10:43.416Z,94849.13
2023-04-08T19:12:45.022Z,94850.31
2023-04-08T19:14:46.694Z,94858.44
2023-04-08T19:16:48.183Z,94859.56
2023-04-08T19:18:49.753Z,94862.91
2023-04-08T19:20:51.182Z,94862.50
2023-04-08T19:22:52.746Z,94865.94
2023-04-08T19:24:55.195Z,94869.34
2023-04-08T19:26:56.842Z,94865.97
2023-04-08T19:28:58.356Z,94876.88
2023-04-08T19:31:00.329Z,94874.91
2023-04-08T19:33:01.931Z,94875.19
2023-04-08T19:35:03.669Z,94875.91
2023-04-08T19:37:06.118Z,94881.72
2023-04-08T19:39:07.605Z,94884.16
2023-04-08T19:41:09.211Z,94877.97
2023-04-08T19:43:10.843Z,94883.22
2023-04-08T19:45:12.364Z,94880.50
2023-04-08T19:47:14.077Z,94893.56
2023-04-08T19:49:15.661Z,94893.28
2023-04-08T19:51:19.055Z,94890.81
2023-04-08T19:53:20.557Z,94896.59
2023-04-08T19:55:22.200Z,94886.28
2023-04-08T19:57:24.223Z,94893.69
2023-04-08T19:59:26.056Z,94890.22
2023-04-08T20:01:27.660Z,94881.53
2023-04-08T20:03:29.382Z,94884.78
2023-04-08T20:05:31.328Z,94887.16
2023-04-08T20:07:32.830Z,94886.16
2023-04-08T20:09:34.378Z,94890.66
2023-04-08T20:11:36.005Z,94892.47
2023-04-08T20:13:37.643Z,94895.22
2023-04-08T20:15:39.544Z,94881.75
2023-04-08T20:17:41.086Z,94876.09
2023-04-08T20:19:42.713Z,94878.72
2023-04-08T20:21:44.554Z,94885.19
2023-04-08T20:23:46.420Z,94886.00
2023-04-08T20:25:48.013Z,94877.50
2023-04-08T20:27:51.464Z,94888.19
2023-04-08T20:29:53.025Z,94894.25
2023-04-08T20:31:54.835Z,94887.53
2023-04-08T20:33:56.421Z,94884.34
2023-04-08T20:35:57.949Z,94885.84
2023-04-08T20:37:59.537Z,94881.31
2023-04-08T20:40:01.033Z,94882.94
2023-04-08T20:42:02.539Z,94884.56
2023-04-08T20:44:06.164Z,94888.78
2023-04-08T20:46:08.058Z,94877.91
2023-04-08T20:50:28.656Z,94884.09
2023-04-08T20:52:30.113Z,94884.91
2023-04-08T20:54:31.838Z,94885.22
2023-04-08T20:56:33.462Z,94883.88
2023-04-08T20:58:34.940Z,94879.63
2023-04-08T21:00:36.434Z,94887.22
2023-04-08T21:02:38.237Z,94882.25
2023-04-08T21:04:39.918Z,94883.50
2023-04-08T21:06:42.221Z,94875.75
2023-04-08T21:08:43.925Z,94876.56
2023-04-08T21:10:45.507Z,94880.09
2023-04-08T21:12:47.148Z,94876.59
2023-04-08T21:14:50.887Z,94872.59
2023-04-08T21:16:52.510Z,94875.06
2023-04-08T21:18:54.072Z,94871.63
2023-04-08T21:20:55.915Z,94875.59
2023-04-08T21:22:59.024Z,94874.72
2023-04-08T21:25:02.502Z,94868.53
2023-04-08T21:27:04.046Z,94871.41
2023-04-08T21:29:05.494Z,94874.47
2023-04-08T21:31:10.337Z,94873.94
2023-04-08T21:33:11.869Z,94874.91
2023-04-08T21:35:13.448Z,94870.38
2023-04-08T21:37:15.006Z,94870.91
2023-04-08T21:39:16.467Z,94864.56
2023-04-08T21:41:18.265Z,94867.66
2023-04-08T21:43:19.772Z,94868.53
2023-04-08T21:45:21.715Z,94867.75
2023-04-08T21:47:23.244Z,94865.38
2023-04-08T21:49:25.063Z,94864.94
2023-04-08T21:51:26.941Z,94862.72
2023-04-08T21:53:28.453Z,94861.16
2023-04-08T21:55:30.026Z,94861.41
2023-04-08T21:57:31.855Z,94857.66
2023-04-08T21:59:33.374Z,94858.22
2023-04-08T22:01:35.008Z,94856.97
2023-04-08T22:03:36.569Z,94857.09
2023-04-08T22:05:38.244Z,94860.09
2023-04-08T22:07:39.733Z,94854.03
2023-04-08T22:09:41.406Z,94852.94
2023-04-08T22:11:42.885Z,94862.78
2023-04-08T22:13:44.341Z,94862.78
2023-04-08T22:15:45.828Z,94860.84
2023-04-08T22:17:47.323Z,94851.97
2023-04-08T22:19:48.843Z,94853.91
2023-04-08T22:21:51.236Z,94853.53
2023-04-08T22:23:52.765Z,94859.56
2023-04-08T22:25:54.251Z,94854.78
2023-04-08T22:27:56.158Z,94857.41
2023-04-08T22:29:57.627Z,94850.13
2023-04-08T22:31:59.095Z,94851.09
2023-04-08T22:34:00.704Z,94856.19
2023-04-08T22:36:02.289Z,94849.09
2023-04-08T22:38:03.847Z,94853.34
2023-04-08T22:40:05.666Z,94848.81
2023-04-08T22:42:07.104Z,94847.91
2023-04-08T22:44:08.598Z,94851.00
2023-04-08T22:46:10.879Z,94856.38
2023-04-08T22:48:12.364Z,94851.44
2023-04-08T22:50:13.885Z,94853.88
2023-04-08T22:52:15.577Z,94840.59
2023-04-08T22:54:18.135Z,94852.16
2023-04-08T22:56:19.625Z,94853.41
2023-04-08T22:58:21.140Z,94848.09
2023-04-08T23:00:22.736Z,94857.06
2023-04-08T23:02:24.293Z,94855.56
2023-04-08T23:04:26.021Z,94851.19
2023-04-08T23:06:28.883Z,94848.03
2023-04-08T23:08:30.402Z,94845.41
2023-04-08T23:10:31.933Z,94847.31
2023-04-08T23:12:33.517Z,94842.38
2023-04-08T23:14:34.961Z,94844.41
2023-04-08T23:16:36.442Z,94835.22
2023-04-08T23:18:37.962Z,94826.94
2023-04-08T23:20:39.413Z,94824.75
2023-04-08T23:22:41.069Z,94818.00
2023-04-08T23:24:42.593Z,94827.75
2023-04-08T23:26:44.461Z,94828.16
2023-04-08T23:28:46.124Z,94824.56
2023-04-08T23:30:47.718Z,94821.81
2023-04-08T23:32:49.255Z,94824.13
2023-04-08T23:34:50.692Z,94821.63
2023-04-08T23:36:52.146Z,94820.00
2023-04-08T23:38:53.838Z,94820.50
2023-04-08T23:40:55.381Z,94816.28
2023-04-08T23:42:56.837Z,94815.59
2023-04-08T23:44:58.309Z,94814.63
2023-04-08T23:46:59.805Z,94817.25
2023-04-08T23:49:01.281Z,94821.34
2023-04-08T23:51:02.880Z,94823.81
2023-04-08T23:53:04.349Z,94818.00
2023-04-08T23:55:06.088Z,94824.31
2023-04-08T23:57:07.627Z,94817.00
2023-04-08T23:59:09.185Z,94815.34
